sensor_id;sensor_type;location;lat;lon;timestamp;temperature;humidity
66871;DHT22;53780;44.998;9.926;2022-09-03T06:22:28;26.43;54.10
66871;DHT22;53780;44.998;9.926;2022-09-03T06:25:33;27.50;51.82
66871;DHT22;53780;44.998;9.926;2022-09-03T06:28:39;26.84;52.22
66871;DHT22;53780;44.998;9.926;2022-09-03T06:31:46;27.48;52.15
66871;DHT22;53780;44.998;9.926;2022-09-03T06:34:51;28.34;49.50
66871;DHT22;53780;44.998;9.926;2022-09-03T06:37:55;29.85;46.97
66871;DHT22;53780;44.998;9.926;2022-09-03T06:41:00;29.17;48.03
66871;DHT22;53780;44.998;9.926;2022-09-03T06:44:07;28.51;49.66
66871;DHT22;53780;44.998;9.926;2022-09-03T06:47:14;27.71;52.31
66871;DHT22;53780;44.998;9.926;2022-09-03T06:50:18;27.53;52.99
66871;DHT22;53780;44.998;9.926;2022-09-03T06:53:25;27.12;54.01
66871;DHT22;53780;44.998;9.926;2022-09-03T06:56:29;27.39;53.53
66871;DHT22;53780;44.998;9.926;2022-09-03T06:59:35;26.31;56.47
66871;DHT22;53780;44.998;9.926;2022-09-03T07:02:39;26.29;55.83
66871;DHT22;53780;44.998;9.926;2022-09-03T07:05:45;26.84;54.87
66871;DHT22;53780;44.998;9.926;2022-09-03T07:08:50;26.72;54.57
66871;DHT22;53780;44.998;9.926;2022-09-03T07:11:54;25.67;56.75
66871;DHT22;53780;44.998;9.926;2022-09-03T07:14:58;25.36;57.01
66871;DHT22;53780;44.998;9.926;2022-09-03T07:18:02;25.71;56.83
66871;DHT22;53780;44.998;9.926;2022-09-03T07:21:11;25.70;56.98
66871;DHT22;53780;44.998;9.926;2022-09-03T07:24:16;26.05;55.29
66871;DHT22;53780;44.998;9.926;2022-09-03T07:27:20;25.74;55.39
66871;DHT22;53780;44.998;9.926;2022-09-03T07:30:25;25.32;56.67
66871;DHT22;53780;44.998;9.926;2022-09-03T07:33:29;25.73;56.54
66871;DHT22;53780;44.998;9.926;2022-09-03T07:36:43;26.28;56.28
66871;DHT22;53780;44.998;9.926;2022-09-03T07:39:49;26.06;56.50
66871;DHT22;53780;44.998;9.926;2022-09-03T07:42:57;26.06;55.70
66871;DHT22;53780;44.998;9.926;2022-09-03T07:46:06;25.87;54.68
66871;DHT22;53780;44.998;9.926;2022-09-03T07:49:11;25.45;55.44
66871;DHT22;53780;44.998;9.926;2022-09-03T07:52:14;25.67;55.68
66871;DHT22;53780;44.998;9.926;2022-09-03T07:55:18;26.08;55.22
66871;DHT22;53780;44.998;9.926;2022-09-03T07:58:22;26.09;55.08
66871;DHT22;53780;44.998;9.926;2022-09-03T08:01:28;26.00;55.81
66871;DHT22;53780;44.998;9.926;2022-09-03T08:04:34;26.60;54.13
66871;DHT22;53780;44.998;9.926;2022-09-03T08:07:38;26.50;53.53
66871;DHT22;53780;44.998;9.926;2022-09-03T08:10:42;26.32;53.88
66871;DHT22;53780;44.998;9.926;2022-09-03T08:13:53;26.35;54.71
66871;DHT22;53780;44.998;9.926;2022-09-03T08:16:57;26.28;55.98
66871;DHT22;53780;44.998;9.926;2022-09-03T08:20:03;25.78;55.79
66871;DHT22;53780;44.998;9.926;2022-09-03T08:23:07;25.45;56.48
66871;DHT22;53780;44.998;9.926;2022-09-03T08:26:12;25.27;57.92
66871;DHT22;53780;44.998;9.926;2022-09-03T08:29:17;25.45;56.47
66871;DHT22;53780;44.998;9.926;2022-09-03T08:32:21;24.91;57.23
66871;DHT22;53780;44.998;9.926;2022-09-03T08:35:25;25.43;57.27
66871;DHT22;53780;44.998;9.926;2022-09-03T08:38:31;26.01;55.31
66871;DHT22;53780;44.998;9.926;2022-09-03T08:42:03;26.26;54.49
66871;DHT22;53780;44.998;9.926;2022-09-03T08:45:44;26.42;54.30
66871;DHT22;53780;44.998;9.926;2022-09-03T08:48:48;26.61;54.17
66871;DHT22;53780;44.998;9.926;2022-09-03T08:51:53;27.03;53.40
66871;DHT22;53780;44.998;9.926;2022-09-03T08:58:21;27.21;51.84
66871;DHT22;53780;44.998;9.926;2022-09-03T09:05:22;26.63;53.05
66871;DHT22;53780;44.998;9.926;2022-09-03T09:08:50;27.21;51.75
66871;DHT22;53780;44.998;9.926;2022-09-03T09:16:09;27.38;51.55
66871;DHT22;53780;44.998;9.926;2022-09-03T09:25:44;27.55;52.11
66871;DHT22;53780;44.998;9.926;2022-09-03T09:29:10;27.80;52.09
66871;DHT22;53780;44.998;9.926;2022-09-03T09:32:16;28.07;51.58
66871;DHT22;53780;44.998;9.926;2022-09-03T09:35:22;27.83;51.51
66871;DHT22;53780;44.998;9.926;2022-09-03T09:38:28;27.96;51.15
66871;DHT22;53780;44.998;9.926;2022-09-03T09:41:33;27.43;53.04
66871;DHT22;53780;44.998;9.926;2022-09-03T09:44:38;27.94;51.51
66871;DHT22;53780;44.998;9.926;2022-09-03T09:47:44;27.67;51.69
66871;DHT22;53780;44.998;9.926;2022-09-03T09:51:09;27.38;52.62
